CYKG

Kangiqsujuaq (Wakeham Bay) Airport

Kangiqsujuaq, Quebec, Canada
METAR CYKG 182100Z VRB03KT 15SM FEW015 BKN021 OVC054 08/03 A2976 RMK ST2SC3SC3 LAST STFD OBS/NEXT 191200 UTC SLP089
Observed Flight Rules
Jul-18 @ 21:00 UTC (11 hours ago) Marginal Visual Flight Rules
Wind Visibility Clouds
Variable at 3 knots 15 miles
  • Few at 1,500' AGL
  • Broken at 2,100' AGL
  • Overcast at 5,400' AGL
Temperatures Readings
Current 8°C / 46°F
Dewpoint 3°C / 37°F
Humidity 71%
Altimeter 29.76" Hg
Pressure 1008.9 hPa
Elevation 151
METAR CYKG 182100Z VRB03KT 15SM FEW015 BKN021 OVC054 08/03 A2976 RMK ST2SC3SC3 LAST STFD OBS/NEXT 191200 UTC SLP089
Observed Flight Rules
Jul-18 @ 21:00 UTC
(11 hours ago)
MVFR
Wind Visibility
Variable at 3 knots 15 miles
Clouds
  • Few at 1,500' AGL
  • Broken at 2,100' AGL
  • Overcast at 5,400' AGL
Temperature Dewpoint
8°C / 46°F 3°C / 37°F
Humidity Altimeter Pressure
71% 29.76" Hg 1008.9 hPa